Time;durP1;ratioP1;P1;durP2;ratioP2;P2;SDS_P1;SDS_P2;PMS_P1;PMS_P2;Temp;Humidity;BMP_temperature;BMP_pressure;BME280_temperature;BME280_humidity;BME280_pressure;Samples;Min_cycle;Max_cycle;Signal;HPM_P1;HPM_P2
2022/02/24 00:00:48;;;;;;;;;;;;;;;14.23;60.63;101205.97;1017528;29;706;-64
2022/02/24 00:01:38;;;;;;;;;;;;;;;14.23;61.06;101214.00;1017693;29;701;-64
2022/02/24 01:10:31;;;;;;;;;;;;;;;14.13;60.73;101121.00;1012950;29;1344;-62
2022/02/24 01:11:22;;;;;;;;;;;;;;;14.12;60.97;101114.78;1013590;29;958;-62
2022/02/24 01:12:12;;;;;;;;;;;;;;;14.13;60.63;101112.97;1013642;29;801;-63
2022/02/24 01:13:02;;;;;;;;;;;;;;;14.11;60.59;101115.75;1013635;29;820;-62
2022/02/24 01:13:53;;;;;;;;;;;;;;;14.12;60.29;101117.47;1013572;29;647;-62
2022/02/24 01:14:43;;;;;;;;;;;;;;;14.11;60.30;101114.91;1013688;29;691;-63
2022/02/24 01:15:38;;;;;;;;;;;;;;;14.11;60.45;101118.44;1013452;29;852;-63
2022/02/24 01:16:28;;;;;;;;;;;;;;;14.12;60.61;101117.47;1013486;29;729;-62
2022/02/24 01:17:19;;;;;;;;;;;;;;;14.12;60.69;101112.09;1013637;29;737;-63
2022/02/24 01:18:09;;;;;;;;;;;;;;;14.11;61.13;101110.41;1013675;29;710;-62
2022/02/24 01:19:00;;;;;;;;;;;;;;;14.11;61.09;101110.41;1013640;29;823;-63
2022/02/24 01:19:50;;;;;;;;;;;;;;;14.10;60.44;101103.31;1013514;29;1903;-63
2022/02/24 01:20:40;;;;;;;;;;;;;;;14.10;61.14;101114.03;1013655;29;697;-63
2022/02/24 01:21:31;;;;;;;;;;;;;;;14.09;60.85;101106.97;1013616;29;855;-62
2022/02/24 01:22:21;;;;;;;;;;;;;;;14.08;60.99;101097.22;1014090;29;964;-62
2022/02/24 01:23:12;;;;;;;;;;;;;;;14.10;60.54;101108.69;1013463;29;713;-64
2022/02/24 01:24:02;;;;;;;;;;;;;;;14.10;60.79;101099.78;1018156;29;2137;-62
2022/02/24 01:24:53;;;;;;;;;;;;;;;14.10;61.22;101103.31;1017515;29;694;-62
2022/02/24 01:25:43;;;;;;;;;;;;;;;14.10;61.15;101102.47;1018343;29;1717;-63
2022/02/24 01:26:33;;;;;;;;;;;;;;;14.10;60.50;101097.97;1020956;29;706;-63
2022/02/24 01:27:24;;;;;;;;;;;;;;;14.10;60.37;101095.28;1021547;29;781;-63
2022/02/24 01:28:14;;;;;;;;;;;;;;;14.09;60.82;101088.22;1021512;29;791;-62
2022/02/24 01:29:05;;;;;;;;;;;;;;;14.09;61.06;101093.56;1017280;29;627;-63
2022/02/24 01:29:55;;;;;;;;;;;;;;;14.09;60.94;101088.22;1017820;29;953;-63
2022/02/24 01:30:45;;;;;;;;;;;;;;;14.10;61.18;101091.75;1021427;29;772;-63
2022/02/24 01:31:36;;;;;;;;;;;;;;;14.09;61.20;101096.25;1022130;29;726;-63
2022/02/24 01:32:26;;;;;;;;;;;;;;;14.09;60.29;101077.50;1021544;29;776;-62
2022/02/24 01:33:17;;;;;;;;;;;;;;;14.10;60.39;101081.03;1022191;29;734;-63
2022/02/24 01:34:07;;;;;;;;;;;;;;;14.08;60.78;101073.09;1021937;29;1517;-64
2022/02/24 01:34:59;;;;;;;;;;;;;;;14.10;60.97;101091.75;1022049;29;674;-64
2022/02/24 01:35:50;;;;;;;;;;;;;;;14.08;61.07;101075.78;1022642;29;756;-63
2022/02/24 01:36:40;;;;;;;;;;;;;;;14.09;60.91;101082.84;1022095;29;740;-63
2022/02/24 01:37:31;;;;;;;;;;;;;;;14.09;60.19;101079.31;1021967;29;970;-64
2022/02/24 01:38:21;;;;;;;;;;;;;;;14.08;60.61;101075.78;1022095;29;798;-64
2022/02/24 01:39:12;;;;;;;;;;;;;;;14.08;60.18;101070.44;1022078;29;751;-64
2022/02/24 01:40:02;;;;;;;;;;;;;;;14.08;60.38;101070.44;1022049;29;1874;-63
2022/02/24 01:40:53;;;;;;;;;;;;;;;14.08;61.08;101065.06;1022043;29;699;-64
2022/02/24 01:41:43;;;;;;;;;;;;;;;14.07;61.15;101066.03;1022150;29;654;-63
2022/02/24 01:42:33;;;;;;;;;;;;;;;14.08;60.35;101064.22;1022063;29;914;-64
2022/02/24 01:43:24;;;;;;;;;;;;;;;14.07;60.90;101066.03;1022114;29;737;-64
2022/02/24 01:44:14;;;;;;;;;;;;;;;14.08;60.55;101064.22;1018103;29;762;-64
2022/02/24 01:45:05;;;;;;;;;;;;;;;14.08;60.97;101069.56;1017559;29;791;-64
2022/02/24 01:45:55;;;;;;;;;;;;;;;14.06;61.02;101058.97;1018184;29;751;-64
2022/02/24 01:46:45;;;;;;;;;;;;;;;14.06;60.82;101058.09;1018103;29;835;-64
2022/02/24 01:47:36;;;;;;;;;;;;;;;14.06;60.42;101067.00;1017601;29;627;-64
2022/02/24 01:48:26;;;;;;;;;;;;;;;14.06;60.55;101064.31;1017732;29;798;-64
2022/02/24 01:49:20;;;;;;;;;;;;;;;14.06;60.89;101053.59;1018175;29;701;-64
2022/02/24 01:50:10;;;;;;;;;;;;;;;14.06;60.57;101058.09;1016949;29;710;-64
2022/02/24 01:51:01;;;;;;;;;;;;;;;14.07;60.37;101060.66;1017614;29;909;-64
2022/02/24 01:51:51;;;;;;;;;;;;;;;14.06;60.34;101052.75;1017451;29;718;-64
2022/02/24 01:52:42;;;;;;;;;;;;;;;14.07;60.46;101052.63;1017613;29;950;-64
2022/02/24 01:53:32;;;;;;;;;;;;;;;14.07;60.86;101054.47;1018213;29;729;-64
2022/02/24 01:54:23;;;;;;;;;;;;;;;14.06;60.41;101053.59;1018020;29;724;-63
2022/02/24 01:55:13;;;;;;;;;;;;;;;14.05;60.36;101046.53;1014343;29;955;-64
2022/02/24 01:56:04;;;;;;;;;;;;;;;14.05;60.58;101040.31;1012788;29;732;-64
2022/02/24 01:56:54;;;;;;;;;;;;;;;14.06;60.21;101044.72;1017589;29;757;-64
2022/02/24 01:57:45;;;;;;;;;;;;;;;14.04;60.96;101042.16;1018716;29;920;-64
2022/02/24 01:58:35;;;;;;;;;;;;;;;14.05;60.52;101054.56;1018722;29;908;-63
2022/02/24 01:59:25;;;;;;;;;;;;;;;14.04;60.43;101042.16;1019247;29;944;-64
2022/02/24 02:00:16;;;;;;;;;;;;;;;14.05;60.83;101040.31;1018622;29;760;-64
2022/02/24 02:01:06;;;;;;;;;;;;;;;14.04;60.56;101034.09;1014280;29;738;-64
2022/02/24 02:01:57;;;;;;;;;;;;;;;14.04;60.82;101044.81;1013862;29;651;-64
2022/02/24 02:02:47;;;;;;;;;;;;;;;14.03;60.79;101024.34;1017577;29;695;-64
2022/02/24 02:03:38;;;;;;;;;;;;;;;14.04;60.73;101034.09;1018665;29;783;-64
2022/02/24 02:04:28;;;;;;;;;;;;;;;14.04;60.20;101035.94;1022117;29;793;-64
2022/02/24 02:05:18;;;;;;;;;;;;;;;14.03;60.33;101031.53;1021976;29;792;-64
2022/02/24 02:06:09;;;;;;;;;;;;;;;14.03;60.54;101027.03;1018600;29;771;-65
2022/02/24 02:07:00;;;;;;;;;;;;;;;14.03;60.40;101021.69;1018696;29;747;-65
2022/02/24 02:07:50;;;;;;;;;;;;;;;14.03;60.67;101031.53;1019166;28;761;-64
2022/02/24 02:08:41;;;;;;;;;;;;;;;14.03;60.92;101019.00;1019228;29;626;-65
2022/02/24 02:09:31;;;;;;;;;;;;;;;14.03;60.18;101024.34;1018989;28;788;-64
2022/02/24 02:10:21;;;;;;;;;;;;;;;14.03;60.53;101021.69;1018932;28;1304;-64
2022/02/24 02:11:12;;;;;;;;;;;;;;;14.03;60.37;101027.03;1019190;28;736;-63
2022/02/24 02:12:02;;;;;;;;;;;;;;;14.04;61.12;101025.22;1019120;28;913;-63
2022/02/24 02:12:53;;;;;;;;;;;;;;;14.03;61.14;101027.03;1019265;29;692;-63
2022/02/24 02:13:44;;;;;;;;;;;;;;;14.03;61.04;101024.34;1018597;29;1868;-64
2022/02/24 02:14:34;;;;;;;;;;;;;;;14.02;61.07;101028.00;1022023;29;1141;-63
2022/02/24 02:15:24;;;;;;;;;;;;;;;14.04;60.90;101028.75;1021997;29;776;-63
2022/02/24 02:16:15;;;;;;;;;;;;;;;14.03;60.46;101024.34;1021876;29;768;-63
2022/02/24 02:17:05;;;;;;;;;;;;;;;14.03;60.95;101020.81;1017088;29;789;-63
2022/02/24 02:17:56;;;;;;;;;;;;;;;14.02;60.87;101017.28;1017696;29;869;-64
2022/02/24 02:18:46;;;;;;;;;;;;;;;14.01;61.19;101020.94;1021376;29;659;-63
2022/02/24 02:19:37;;;;;;;;;;;;;;;14.03;60.55;101015.47;1021962;29;690;-64
2022/02/24 02:20:27;;;;;;;;;;;;;;;14.04;61.37;101022.53;1017334;29;707;-64
2022/02/24 02:21:18;;;;;;;;;;;;;;;14.03;60.42;101019.00;1017753;29;812;-64
2022/02/24 02:22:08;;;;;;;;;;;;;;;14.03;60.56;101010.09;1017933;29;875;-64
2022/02/24 02:22:59;;;;;;;;;;;;;;;14.03;61.20;101013.63;1018310;29;627;-64
2022/02/24 02:23:49;;;;;;;;;;;;;;;14.03;60.88;101007.44;1022275;29;1695;-65
2022/02/24 02:24:39;;;;;;;;;;;;;;;14.02;60.75;101003.03;1018010;29;673;-64
2022/02/24 02:25:30;;;;;;;;;;;;;;;14.02;60.44;101003.88;1018009;29;718;-64
2022/02/24 02:26:20;;;;;;;;;;;;;;;14.03;60.96;101010.97;1017957;29;765;-64
2022/02/24 02:27:11;;;;;;;;;;;;;;;14.02;60.99;101003.03;1018558;29;805;-63
2022/02/24 02:28:01;;;;;;;;;;;;;;;14.01;60.96;101002.19;1017950;29;656;-63
2022/02/24 02:28:52;;;;;;;;;;;;;;;14.02;60.59;101011.94;1017890;29;1057;-63
2022/02/24 02:29:42;;;;;;;;;;;;;;;14.00;61.23;101000.47;1017931;29;740;-62
2022/02/24 02:30:33;;;;;;;;;;;;;;;14.01;61.41;100999.50;1017908;29;769;-63
2022/02/24 02:31:23;;;;;;;;;;;;;;;14.01;60.53;101010.22;1018773;29;1639;-63
2022/02/24 02:32:13;;;;;;;;;;;;;;;14.01;60.72;100995.97;1017932;29;783;-62
2022/02/24 02:33:04;;;;;;;;;;;;;;;14.00;61.15;100995.13;1017437;29;697;-63
2022/02/24 02:33:54;;;;;;;;;;;;;;;14.01;60.72;100991.47;1017509;29;733;-64
2022/02/24 02:34:45;;;;;;;;;;;;;;;14.01;60.45;100996.81;1017931;29;839;-63
2022/02/24 02:35:36;;;;;;;;;;;;;;;14.02;61.00;100989.63;1017502;29;710;-63
2022/02/24 02:36:26;;;;;;;;;;;;;;;14.01;60.74;100985.25;1017440;29;831;-64
2022/02/24 02:37:16;;;;;;;;;;;;;;;14.00;61.24;100991.56;1017235;29;1105;-63
2022/02/24 02:38:07;;;;;;;;;;;;;;;14.00;61.43;100987.06;1017385;29;711;-63
2022/02/24 02:38:57;;;;;;;;;;;;;;;14.00;61.30;100992.44;1017953;29;962;-64
2022/02/24 02:39:48;;;;;;;;;;;;;;;14.00;61.04;100984.38;1016926;29;1895;-64
2022/02/24 02:40:38;;;;;;;;;;;;;;;14.00;60.68;100986.22;1017479;29;694;-64
2022/02/24 02:41:29;;;;;;;;;;;;;;;14.01;60.62;100990.59;1019095;29;1637;-65
2022/02/24 02:42:19;;;;;;;;;;;;;;;14.01;60.85;100978.06;1022024;29;737;-63
2022/02/24 02:43:09;;;;;;;;;;;;;;;14.01;61.41;100986.09;1021791;29;888;-63
2022/02/24 02:44:00;;;;;;;;;;;;;;;14.00;60.61;100979.03;1021795;29;640;-64
2022/02/24 02:44:50;;;;;;;;;;;;;;;14.00;61.36;100981.72;1021901;29;662;-64
2022/02/24 02:45:41;;;;;;;;;;;;;;;14.01;61.46;100985.25;1021837;29;662;-64
2022/02/24 02:46:31;;;;;;;;;;;;;;;13.99;60.87;100985.38;1014943;29;1645;-64
2022/02/24 02:47:22;;;;;;;;;;;;;;;14.00;60.64;100978.19;1013733;29;983;-64
2022/02/24 02:48:12;;;;;;;;;;;;;;;14.00;60.80;100975.50;1016996;29;814;-64
2022/02/24 02:49:02;;;;;;;;;;;;;;;13.99;60.84;100976.47;1017858;29;852;-64
2022/02/24 02:49:53;;;;;;;;;;;;;;;13.99;60.80;100976.47;1018477;29;678;-63
2022/02/24 02:50:43;;;;;;;;;;;;;;;13.97;61.25;100979.28;1018505;29;691;-64
2022/02/24 02:51:34;;;;;;;;;;;;;;;13.98;61.23;100975.63;1016704;29;1818;-62
2022/02/24 02:52:24;;;;;;;;;;;;;;;13.98;60.62;100974.75;1018531;29;1046;-62
2022/02/24 02:53:14;;;;;;;;;;;;;;;13.99;60.74;100976.47;1022031;29;866;-63
2022/02/24 02:54:05;;;;;;;;;;;;;;;13.99;61.47;100976.47;1020753;29;644;-62
2022/02/24 02:54:55;;;;;;;;;;;;;;;13.98;61.46;100972.94;1021700;29;710;-62
2022/02/24 02:55:46;;;;;;;;;;;;;;;13.98;60.81;100967.56;1021671;29;835;-62
2022/02/24 02:56:36;;;;;;;;;;;;;;;13.98;60.64;100959.53;1021868;29;698;-62
2022/02/24 02:57:27;;;;;;;;;;;;;;;13.99;61.07;100960.41;1021806;29;835;-63
2022/02/24 02:58:17;;;;;;;;;;;;;;;13.99;60.93;100957.72;1021848;29;878;-63
2022/02/24 02:59:07;;;;;;;;;;;;;;;13.99;61.28;100960.41;1021744;29;836;-62
2022/02/24 02:59:58;;;;;;;;;;;;;;;13.98;60.54;100967.56;1021628;29;1957;-62
2022/02/24 03:00:48;;;;;;;;;;;;;;;13.98;61.22;100962.22;1021605;29;733;-61
2022/02/24 03:01:39;;;;;;;;;;;;;;;13.97;61.29;100955.19;1019104;29;1729;-62
2022/02/24 03:02:29;;;;;;;;;;;;;;;13.96;60.87;100956.16;1017838;29;666;-62
2022/02/24 03:03:24;;;;;;;;;;;;;;;13.97;61.02;100951.66;1017887;29;720;-61
2022/02/24 03:04:14;;;;;;;;;;;;;;;13.96;60.82;100950.78;1018370;29;701;-62
2022/02/24 03:05:05;;;;;;;;;;;;;;;13.97;60.51;100948.97;1019067;29;745;-62
2022/02/24 03:05:55;;;;;;;;;;;;;;;13.96;61.35;100948.13;1017795;29;943;-62
2022/02/24 03:06:46;;;;;;;;;;;;;;;13.97;60.68;100947.16;1017819;29;695;-62
2022/02/24 03:07:36;;;;;;;;;;;;;;;13.96;60.74;100950.78;1017802;29;1157;-62
2022/02/24 03:08:27;;;;;;;;;;;;;;;13.97;61.23;100951.66;1017838;29;717;-62
2022/02/24 03:09:17;;;;;;;;;;;;;;;13.96;61.32;100939.22;1017793;29;791;-62
2022/02/24 03:10:07;;;;;;;;;;;;;;;13.97;61.22;100944.47;1017830;29;858;-62
2022/02/24 03:10:59;;;;;;;;;;;;;;;13.97;60.67;100941.78;1017876;29;590;-62
2022/02/24 03:11:49;;;;;;;;;;;;;;;13.96;60.67;100936.53;1018165;29;1567;-62
2022/02/24 03:12:40;;;;;;;;;;;;;;;13.95;61.31;100941.06;1017826;29;817;-63
2022/02/24 03:13:30;;;;;;;;;;;;;;;13.96;61.02;100939.22;1020237;29;1819;-63
2022/02/24 03:14:21;;;;;;;;;;;;;;;13.96;61.12;100934.72;1021592;29;761;-63
2022/02/24 03:15:13;;;;;;;;;;;;;;;13.96;60.54;100929.38;1021729;29;705;-63
2022/02/24 03:16:03;;;;;;;;;;;;;;;13.95;61.24;100927.66;1022250;29;713;-63
2022/02/24 03:16:54;;;;;;;;;;;;;;;13.96;60.57;100926.69;1021675;29;678;-63
2022/02/24 03:17:44;;;;;;;;;;;;;;;13.96;61.34;100920.47;1021805;29;713;-63
2022/02/24 03:18:35;;;;;;;;;;;;;;;13.95;60.69;100922.28;1021682;29;848;-63
2022/02/24 03:19:25;;;;;;;;;;;;;;;13.96;60.64;100915.09;1021853;29;789;-63
2022/02/24 03:20:15;;;;;;;;;;;;;;;13.95;60.68;100911.56;1021767;29;716;-64
2022/02/24 03:21:06;;;;;;;;;;;;;;;13.95;61.25;100916.94;1021627;29;702;-63
2022/02/24 03:21:56;;;;;;;;;;;;;;;13.96;60.82;100913.28;1021628;29;643;-62
2022/02/24 03:22:47;;;;;;;;;;;;;;;13.95;61.19;100916.94;1021573;29;964;-62
2022/02/24 03:23:39;;;;;;;;;;;;;;;13.95;60.50;100905.38;1021695;29;674;-62
2022/02/24 03:24:29;;;;;;;;;;;;;;;13.94;61.28;100909.88;1022229;29;759;-62
2022/02/24 03:25:19;;;;;;;;;;;;;;;13.94;60.85;100907.19;1021685;29;716;-61
2022/02/24 03:26:10;;;;;;;;;;;;;;;13.94;61.56;100907.19;1021716;29;738;-62
2022/02/24 03:27:00;;;;;;;;;;;;;;;13.94;60.65;100900.97;1021701;29;964;-63
2022/02/24 03:27:51;;;;;;;;;;;;;;;13.93;60.95;100908.16;1021746;29;740;-62
2022/02/24 03:28:41;;;;;;;;;;;;;;;13.93;61.06;100900.13;1021633;29;631;-62
2022/02/24 03:29:31;;;;;;;;;;;;;;;13.94;60.85;100906.34;1021750;29;673;-62
2022/02/24 03:30:22;;;;;;;;;;;;;;;13.93;60.62;100894.75;1021525;29;693;-61
2022/02/24 03:31:12;;;;;;;;;;;;;;;13.94;60.96;100896.47;1021714;29;960;-62
2022/02/24 03:32:03;;;;;;;;;;;;;;;13.94;60.80;100893.78;1017747;29;731;-62
2022/02/24 03:32:53;;;;;;;;;;;;;;;13.95;60.62;100900.00;1017137;29;878;-62
2022/02/24 03:33:43;;;;;;;;;;;;;;;13.94;60.57;100896.47;1017317;29;650;-62
2022/02/24 03:34:34;;;;;;;;;;;;;;;13.93;60.97;100892.09;1017182;29;682;-62
2022/02/24 03:35:24;;;;;;;;;;;;;;;13.92;61.06;100893.06;1017061;29;970;-63
2022/02/24 03:36:15;;;;;;;;;;;;;;;13.93;60.70;100889.41;1017266;29;759;-63
2022/02/24 03:37:05;;;;;;;;;;;;;;;13.92;60.84;100895.75;1017213;29;779;-62
2022/02/24 03:37:56;;;;;;;;;;;;;;;13.93;61.17;100886.72;1017677;29;769;-65
2022/02/24 03:38:46;;;;;;;;;;;;;;;13.92;60.69;100895.75;1017258;29;690;-65
2022/02/24 03:39:36;;;;;;;;;;;;;;;13.92;60.50;100878.81;1017199;29;778;-64
2022/02/24 03:40:27;;;;;;;;;;;;;;;13.92;61.45;100885.03;1017233;29;822;-65
2022/02/24 03:41:17;;;;;;;;;;;;;;;13.92;61.04;100885.03;1016981;29;734;-65
2022/02/24 03:42:08;;;;;;;;;;;;;;;13.93;60.45;100881.38;1017756;29;715;-65
2022/02/24 03:42:58;;;;;;;;;;;;;;;13.92;60.99;100881.50;1018318;29;860;-64
2022/02/24 03:43:49;;;;;;;;;;;;;;;13.93;61.14;100885.88;1014100;29;809;-64
2022/02/24 03:44:39;;;;;;;;;;;;;;;13.92;61.20;100882.34;1013577;29;627;-65
2022/02/24 03:45:29;;;;;;;;;;;;;;;13.93;60.66;100870.66;1017142;29;821;-65
2022/02/24 03:46:20;;;;;;;;;;;;;;;13.92;60.77;100882.34;1018270;29;761;-66
2022/02/24 03:47:11;;;;;;;;;;;;;;;13.93;60.59;100883.19;1016518;29;673;-65
2022/02/24 03:48:01;;;;;;;;;;;;;;;13.91;60.79;100869.91;1018109;29;800;-63
2022/02/24 03:48:51;;;;;;;;;;;;;;;13.92;61.21;100876.13;1018166;29;642;-64
2022/02/24 03:49:42;;;;;;;;;;;;;;;13.91;61.29;100880.63;1018230;29;760;-64
2022/02/24 03:50:32;;;;;;;;;;;;;;;13.91;60.67;100883.31;1018268;29;687;-64
2022/02/24 03:51:23;;;;;;;;;;;;;;;13.91;60.69;100872.59;1018884;29;797;-64
2022/02/24 03:52:13;;;;;;;;;;;;;;;13.92;60.85;100870.78;1021540;29;1065;-64
2022/02/24 03:53:04;;;;;;;;;;;;;;;13.91;61.08;100875.28;1021644;29;753;-63
2022/02/24 03:53:54;;;;;;;;;;;;;;;13.91;60.95;100872.59;1016885;29;879;-63
2022/02/24 03:54:44;;;;;;;;;;;;;;;13.90;61.35;100862.84;1017345;29;642;-63
2022/02/24 03:55:35;;;;;;;;;;;;;;;13.89;61.09;100867.34;1021129;29;850;-64
2022/02/24 03:56:25;;;;;;;;;;;;;;;13.89;60.47;100871.84;1021616;29;700;-64
2022/02/24 03:57:16;;;;;;;;;;;;;;;13.90;61.09;100865.53;1021710;29;797;-63
2022/02/24 03:58:06;;;;;;;;;;;;;;;13.89;61.03;100863.81;1021558;29;708;-64
2022/02/24 03:58:56;;;;;;;;;;;;;;;13.89;60.52;100858.47;1021685;29;706;-64
2022/02/24 03:59:47;;;;;;;;;;;;;;;13.89;61.11;100861.16;1021612;29;1886;-64
2022/02/24 04:00:37;;;;;;;;;;;;;;;13.89;60.62;100867.34;1021632;29;838;-63
2022/02/24 04:01:28;;;;;;;;;;;;;;;13.88;61.12;100854.94;1020928;29;688;-64
2022/02/24 04:02:18;;;;;;;;;;;;;;;13.88;60.44;100852.25;1018163;29;818;-63
2022/02/24 04:03:08;;;;;;;;;;;;;;;13.88;61.09;100856.75;1018776;28;747;-63
2022/02/24 04:03:59;;;;;;;;;;;;;;;13.87;60.36;100850.56;1018776;28;614;-63
2022/02/24 04:04:49;;;;;;;;;;;;;;;13.87;61.18;100850.56;1018825;28;745;-60
2022/02/24 04:05:40;;;;;;;;;;;;;;;13.89;60.38;100861.16;1018888;29;662;-63
2022/02/24 04:06:30;;;;;;;;;;;;;;;13.88;61.08;100854.94;1018746;28;827;-64
2022/02/24 04:07:20;;;;;;;;;;;;;;;13.88;60.35;100849.56;1018612;28;1361;-63
2022/02/24 04:08:11;;;;;;;;;;;;;;;13.88;60.46;100851.41;1018796;28;753;-63
2022/02/24 04:09:01;;;;;;;;;;;;;;;13.88;60.59;100852.25;1018447;28;675;-64
2022/02/24 04:09:52;;;;;;;;;;;;;;;13.88;61.04;100857.63;1018756;28;743;-63
2022/02/24 04:10:42;;;;;;;;;;;;;;;13.87;60.69;100850.56;1018690;28;1406;-63
2022/02/24 04:11:33;;;;;;;;;;;;;;;13.88;60.21;100857.63;1018838;28;1729;-64
2022/02/24 04:12:23;;;;;;;;;;;;;;;13.87;60.98;100855.91;1017593;29;702;-64
2022/02/24 04:13:13;;;;;;;;;;;;;;;13.88;60.38;100862.13;1017153;29;703;-64
2022/02/24 04:14:04;;;;;;;;;;;;;;;13.88;61.04;100856.75;1018107;29;701;-64
2022/02/24 04:14:55;;;;;;;;;;;;;;;13.87;60.75;100863.94;1017541;29;949;-64
2022/02/24 04:15:47;;;;;;;;;;;;;;;13.87;60.82;100855.06;1016605;29;707;-64
2022/02/24 04:16:37;;;;;;;;;;;;;;;13.87;60.51;100863.09;1016605;29;675;-64
2022/02/24 04:17:28;;;;;;;;;;;;;;;13.87;60.36;100860.41;1017523;29;752;-64
2022/02/24 04:18:18;;;;;;;;;;;;;;;13.86;60.46;100856.88;1017636;29;722;-64
2022/02/24 04:19:08;;;;;;;;;;;;;;;13.88;60.73;100854.09;1017487;29;842;-64
2022/02/24 04:19:59;;;;;;;;;;;;;;;13.86;60.91;100856.88;1017672;29;1946;-64
2022/02/24 04:20:49;;;;;;;;;;;;;;;13.86;60.21;100858.69;1017655;29;817;-64
2022/02/24 04:21:40;;;;;;;;;;;;;;;13.87;60.01;100865.78;1018407;29;1706;-64
2022/02/24 04:22:30;;;;;;;;;;;;;;;13.85;60.89;100860.53;1021421;29;902;-64
2022/02/24 04:23:21;;;;;;;;;;;;;;;13.85;60.73;100851.63;1021499;29;761;-64
2022/02/24 04:24:11;;;;;;;;;;;;;;;13.86;60.25;100851.53;1021531;29;735;-65
2022/02/24 04:25:01;;;;;;;;;;;;;;;13.85;60.41;100851.63;1021516;29;851;-65
2022/02/24 04:25:52;;;;;;;;;;;;;;;13.86;60.87;100848.84;1021539;29;655;-65
2022/02/24 04:26:42;;;;;;;;;;;;;;;13.85;60.54;100851.63;1021517;29;668;-65
2022/02/24 04:27:33;;;;;;;;;;;;;;;13.84;60.05;100850.78;1021508;29;843;-65
2022/02/24 04:28:23;;;;;;;;;;;;;;;13.84;60.11;100850.78;1021537;29;735;-65
2022/02/24 04:29:13;;;;;;;;;;;;;;;13.84;60.13;100845.44;1021502;29;794;-65
2022/02/24 04:30:04;;;;;;;;;;;;;;;13.85;60.19;100851.63;1021514;29;750;-65
2022/02/24 04:30:54;;;;;;;;;;;;;;;13.84;60.09;100850.78;1021399;29;703;-66
2022/02/24 04:31:45;;;;;;;;;;;;;;;13.84;60.70;100845.44;1020445;29;1777;-65
2022/02/24 04:32:35;;;;;;;;;;;;;;;13.83;60.54;100854.44;1017649;29;663;-65
2022/02/24 04:33:25;;;;;;;;;;;;;;;13.84;60.59;100836.53;1017456;29;774;-66
2022/02/24 04:34:16;;;;;;;;;;;;;;;13.83;60.98;100843.72;1018826;29;712;-66
2022/02/24 04:35:06;;;;;;;;;;;;;;;13.84;60.75;100842.75;1017623;29;821;-66
2022/02/24 04:35:57;;;;;;;;;;;;;;;13.84;60.39;100840.06;1017466;29;869;-66
2022/02/24 04:36:47;;;;;;;;;;;;;;;13.83;59.95;100842.88;1017581;29;720;-65
2022/02/24 04:37:37;;;;;;;;;;;;;;;13.83;60.13;100840.19;1017551;29;836;-64
2022/02/24 04:38:28;;;;;;;;;;;;;;;13.83;60.77;100842.88;1017600;29;703;-65
2022/02/24 04:39:18;;;;;;;;;;;;;;;13.83;60.60;100834.81;1017693;29;784;-65
2022/02/24 04:40:09;;;;;;;;;;;;;;;13.82;60.38;100847.38;1017552;29;1942;-64
2022/02/24 04:40:59;;;;;;;;;;;;;;;13.82;60.59;100836.66;1017540;29;753;-63
2022/02/24 04:41:50;;;;;;;;;;;;;;;13.82;60.76;100842.00;1017841;29;1829;-64
2022/02/24 04:42:40;;;;;;;;;;;;;;;13.82;60.28;100843.84;1017600;29;706;-63
2022/02/24 04:43:30;;;;;;;;;;;;;;;13.82;59.89;100839.34;1017519;29;733;-63
2022/02/24 04:44:21;;;;;;;;;;;;;;;13.82;59.98;100838.47;1017517;29;799;-63
2022/02/24 04:45:11;;;;;;;;;;;;;;;13.81;60.62;100840.31;1017581;29;732;-64
2022/02/24 04:46:02;;;;;;;;;;;;;;;13.81;59.91;100839.44;1017482;29;935;-64
2022/02/24 04:46:52;;;;;;;;;;;;;;;13.81;60.61;100840.31;1017639;29;643;-64
2022/02/24 04:47:43;;;;;;;;;;;;;;;13.81;59.90;100836.78;1017590;29;651;-64
2022/02/24 04:48:33;;;;;;;;;;;;;;;13.81;60.14;100839.44;1018704;29;799;-63
2022/02/24 04:49:23;;;;;;;;;;;;;;;13.80;60.31;100830.56;1017620;29;685;-63
2022/02/24 04:50:14;;;;;;;;;;;;;;;13.80;60.73;100832.38;1017465;29;806;-64
2022/02/24 04:51:04;;;;;;;;;;;;;;;13.80;59.85;100837.75;1017556;29;781;-63
2022/02/24 04:51:55;;;;;;;;;;;;;;;13.80;60.74;100830.56;1018340;29;1949;-64
2022/02/24 04:52:45;;;;;;;;;;;;;;;13.80;60.41;100827.03;1021516;29;627;-64
2022/02/24 04:53:36;;;;;;;;;;;;;;;13.81;60.56;100823.38;1021497;29;643;-64
2022/02/24 04:54:26;;;;;;;;;;;;;;;13.81;60.01;100828.72;1021457;29;836;-63
2022/02/24 04:55:16;;;;;;;;;;;;;;;13.80;59.89;100830.56;1021510;29;810;-64
2022/02/24 04:56:07;;;;;;;;;;;;;;;13.80;60.77;100817.16;1021510;29;694;-64
2022/02/24 04:56:57;;;;;;;;;;;;;;;13.79;60.44;100822.69;1021496;29;903;-64
2022/02/24 04:57:49;;;;;;;;;;;;;;;13.80;60.54;100821.66;1021568;29;1052;-64
2022/02/24 04:58:39;;;;;;;;;;;;;;;13.81;60.66;100823.38;1021395;29;936;-64
2022/02/24 04:59:29;;;;;;;;;;;;;;;13.80;60.38;100827.03;1021547;29;798;-64
2022/02/24 05:00:21;;;;;;;;;;;;;;;13.79;60.47;100820.00;1021468;29;723;-64
2022/02/24 05:01:11;;;;;;;;;;;;;;;13.79;60.77;100825.34;1021939;29;713;-64
2022/02/24 05:02:01;;;;;;;;;;;;;;;13.80;60.43;100827.03;1019186;29;1648;-64
2022/02/24 05:02:52;;;;;;;;;;;;;;;13.79;60.55;100820.81;1017462;29;954;-64
2022/02/24 05:03:42;;;;;;;;;;;;;;;13.79;60.64;100820.00;1018316;29;797;-64
2022/02/24 05:04:33;;;;;;;;;;;;;;;13.78;60.03;100816.47;1018361;29;749;-63
2022/02/24 05:05:23;;;;;;;;;;;;;;;13.78;60.10;100812.94;1018378;29;778;-64
2022/02/24 05:06:14;;;;;;;;;;;;;;;13.78;60.61;100805.75;1018253;29;675;-64
2022/02/24 05:07:04;;;;;;;;;;;;;;;13.77;60.40;100812.09;1018741;29;880;-64
2022/02/24 05:07:54;;;;;;;;;;;;;;;13.78;60.72;100811.09;1018202;29;619;-64
2022/02/24 05:08:45;;;;;;;;;;;;;;;13.77;59.93;100797.84;1018269;29;753;-63
2022/02/24 05:09:35;;;;;;;;;;;;;;;13.78;60.50;100804.91;1018218;29;1016;-63
2022/02/24 05:10:26;;;;;;;;;;;;;;;13.77;59.81;100804.03;1018743;29;1140;-63
2022/02/24 05:11:16;;;;;;;;;;;;;;;13.77;60.17;100805.88;1018163;29;1040;-63
2022/02/24 05:12:07;;;;;;;;;;;;;;;13.77;60.77;100805.88;1018675;29;1846;-63
2022/02/24 05:12:57;;;;;;;;;;;;;;;13.76;59.88;100804.16;1018349;29;686;-63
2022/02/24 05:13:48;;;;;;;;;;;;;;;13.77;60.46;100806.72;1018254;29;1813;-63
2022/02/24 05:14:38;;;;;;;;;;;;;;;13.76;60.16;100805.00;1018284;29;628;-63
2022/02/24 05:15:28;;;;;;;;;;;;;;;13.77;60.54;100806.72;1018238;29;894;-63
2022/02/24 05:16:19;;;;;;;;;;;;;;;13.77;59.77;100804.03;1018256;29;777;-63
2022/02/24 05:17:09;;;;;;;;;;;;;;;13.78;60.72;100802.22;1018332;29;819;-63
2022/02/24 05:18:00;;;;;;;;;;;;;;;13.77;60.25;100795.16;1018277;29;792;-64
2022/02/24 05:18:50;;;;;;;;;;;;;;;13.77;59.89;100801.38;1018305;29;727;-63
2022/02/24 05:19:41;;;;;;;;;;;;;;;13.77;60.70;100800.50;1019116;29;836;-63
2022/02/24 05:20:31;;;;;;;;;;;;;;;13.78;59.96;100802.22;1018209;29;686;-63
2022/02/24 05:21:21;;;;;;;;;;;;;;;13.76;59.72;100799.66;1019300;29;833;-63
2022/02/24 05:22:12;;;;;;;;;;;;;;;13.77;60.52;100795.16;1018515;29;1621;-63
2022/02/24 05:23:02;;;;;;;;;;;;;;;13.76;59.64;100794.31;1018234;29;788;-63
2022/02/24 05:23:53;;;;;;;;;;;;;;;13.75;60.04;100792.59;1018250;29;953;-62
2022/02/24 05:24:43;;;;;;;;;;;;;;;13.75;59.96;100795.28;1018193;29;709;-64
2022/02/24 05:25:35;;;;;;;;;;;;;;;13.75;59.64;100784.56;1018240;29;842;-63
2022/02/24 05:26:25;;;;;;;;;;;;;;;13.75;59.98;100786.38;1018781;29;666;-63
2022/02/24 05:27:15;;;;;;;;;;;;;;;13.75;60.50;100781.03;1018206;29;743;-63
2022/02/24 05:28:06;;;;;;;;;;;;;;;13.75;60.60;100781.03;1018075;29;919;-64
2022/02/24 05:28:56;;;;;;;;;;;;;;;13.75;60.53;100775.69;1018270;29;650;-63
2022/02/24 05:29:47;;;;;;;;;;;;;;;13.74;59.75;100774.81;1018150;29;935;-63
2022/02/24 05:30:37;;;;;;;;;;;;;;;13.76;60.48;100780.91;1018108;29;690;-62
2022/02/24 05:31:28;;;;;;;;;;;;;;;13.75;59.66;100781.03;1018200;29;694;-63
2022/02/24 05:32:18;;;;;;;;;;;;;;;13.76;59.76;100777.38;1021126;29;1660;-63
2022/02/24 05:33:10;;;;;;;;;;;;;;;13.75;60.58;100773.84;1022068;29;753;-63
2022/02/24 05:34:00;;;;;;;;;;;;;;;13.75;60.23;100770.31;1022070;29;795;-64